createdAt,value
2018-01-13T00:00:29.840Z,29.03
2018-01-13T00:02:57.393Z,31.97
2018-01-13T00:05:24.962Z,40.73
2018-01-13T00:07:52.514Z,40.73
2018-01-13T00:10:20.050Z,36.67
2018-01-13T00:12:48.377Z,44.23
2018-01-13T00:15:15.916Z,43.60
2018-01-13T00:17:43.437Z,36.20
2018-01-13T00:20:11.165Z,39.53
2018-01-13T00:22:39.606Z,34.20
2018-01-13T00:25:07.231Z,29.87
2018-01-13T00:27:34.766Z,33.80
2018-01-13T00:30:02.290Z,37.50
2018-01-13T00:32:29.829Z,31.37
2018-01-13T00:34:58.123Z,33.90
2018-01-13T00:37:25.673Z,31.43
2018-01-13T00:39:53.969Z,28.77
2018-01-13T00:42:21.517Z,35.53
2018-01-13T00:44:49.808Z,27.73
2018-01-13T00:47:18.113Z,31.77
2018-01-13T00:49:45.639Z,28.60
2018-01-13T00:52:13.964Z,28.60
2018-01-13T00:54:41.478Z,25.43
2018-01-13T00:57:09.762Z,24.47
2018-01-13T00:59:38.069Z,22.17
2018-01-13T01:02:05.625Z,21.40
2018-01-13T01:04:33.169Z,21.00
2018-01-13T01:07:00.704Z,18.20
2018-01-13T01:09:29.018Z,22.98
2018-01-13T01:11:56.554Z,19.70
2018-01-13T01:14:24.864Z,17.08
2018-01-13T01:16:52.390Z,15.27
2018-01-13T01:19:20.696Z,14.98
2018-01-13T01:21:48.226Z,15.95
2018-01-13T01:24:16.543Z,18.00
2018-01-13T01:26:44.064Z,18.27
2018-01-13T01:29:12.354Z,20.50
2018-01-13T01:31:39.900Z,17.20
2018-01-13T01:34:08.193Z,23.02
2018-01-13T01:36:35.742Z,22.55
2018-01-13T01:39:04.034Z,30.77
2018-01-13T01:41:32.339Z,30.75
2018-01-13T01:43:59.857Z,28.20
2018-01-13T01:46:28.178Z,26.10
2018-01-13T01:48:55.705Z,27.80
2018-01-13T01:51:24.028Z,33.22
2018-01-13T01:53:51.582Z,29.48
2018-01-13T01:56:19.135Z,32.13
2018-01-13T01:58:46.656Z,31.23
2018-01-13T02:01:14.944Z,30.40
2018-01-13T02:03:43.253Z,32.15
2018-01-13T02:06:10.778Z,28.92
2018-01-13T02:08:39.086Z,32.63
2018-01-13T02:11:06.657Z,28.42
2018-01-13T02:13:34.193Z,35.80
2018-01-13T02:16:01.722Z,31.15
2018-01-13T02:18:29.266Z,26.27
2018-01-13T02:20:56.806Z,30.15
2018-01-13T02:23:24.349Z,22.37
2018-01-13T02:25:51.866Z,32.13
2018-01-13T02:28:19.413Z,26.45
2018-01-13T02:30:46.942Z,29.20
2018-01-13T02:33:14.460Z,30.60
2018-01-13T02:35:42.770Z,39.08
2018-01-13T02:38:10.285Z,45.85
2018-01-13T02:40:37.825Z,31.52
2018-01-13T02:43:05.341Z,31.67
2018-01-13T02:45:32.881Z,53.97
2018-01-13T02:48:00.397Z,46.08
2018-01-13T02:50:27.934Z,38.05
2018-01-13T02:52:55.457Z,55.60
2018-01-13T02:55:23.001Z,42.70
2018-01-13T02:57:51.293Z,31.83
2018-01-13T03:00:18.910Z,39.35
2018-01-13T03:02:46.434Z,28.80
2018-01-13T03:05:14.727Z,34.30
2018-01-13T03:07:42.265Z,40.90
2018-01-13T03:10:10.588Z,55.12
2018-01-13T03:12:38.156Z,44.55
2018-01-13T03:15:05.685Z,43.08
2018-01-13T03:17:33.237Z,47.67
2018-01-13T03:20:01.530Z,64.75
2018-01-13T03:22:29.069Z,46.80
2018-01-13T03:24:57.365Z,103.20
2018-01-13T03:27:25.164Z,57.92
2018-01-13T03:29:52.725Z,65.72
2018-01-13T03:32:20.259Z,103.57
2018-01-13T03:34:47.807Z,48.30
2018-01-13T03:37:16.092Z,81.50
2018-01-13T03:39:44.414Z,82.60
2018-01-13T03:42:11.976Z,70.07
2018-01-13T03:44:39.518Z,63.97
2018-01-13T03:47:07.046Z,92.07
2018-01-13T03:49:35.370Z,48.83
2018-01-13T03:52:02.900Z,37.85
2018-01-13T03:54:31.214Z,47.55
2018-01-13T03:56:58.741Z,72.22
2018-01-13T03:59:27.026Z,59.03
2018-01-13T04:01:54.573Z,61.10
2018-01-13T04:04:22.899Z,76.93
2018-01-13T04:06:50.445Z,57.17
2018-01-13T04:09:17.973Z,72.53
2018-01-13T04:11:46.304Z,85.87
2018-01-13T04:14:13.830Z,62.10
2018-01-13T04:16:41.374Z,58.03
2018-01-13T04:19:09.666Z,51.47
2018-01-13T04:21:37.969Z,43.80
2018-01-13T04:24:05.497Z,45.03
2018-01-13T04:26:33.821Z,38.42
2018-01-13T04:29:01.381Z,41.30
2018-01-13T04:31:29.150Z,35.53
2018-01-13T04:33:56.676Z,30.20
2018-01-13T04:36:24.985Z,27.00
2018-01-13T04:38:52.534Z,31.33
2018-01-13T04:41:20.114Z,22.42
2018-01-13T04:43:47.659Z,16.33
2018-01-13T04:46:15.186Z,16.95
2018-01-13T04:48:43.490Z,18.20
2018-01-13T04:51:11.023Z,19.62
2018-01-13T04:53:39.332Z,14.85
2018-01-13T04:56:06.853Z,15.88
2018-01-13T04:58:34.399Z,13.10
2018-01-13T05:01:01.934Z,17.65
2018-01-13T05:03:29.472Z,14.70
2018-01-13T05:05:56.989Z,12.93
2018-01-13T05:08:24.505Z,14.50
2018-01-13T05:10:52.042Z,22.80
2018-01-13T05:13:19.569Z,30.87
2018-01-13T05:15:47.116Z,22.90
2018-01-13T05:18:14.646Z,22.10
2018-01-13T05:20:42.188Z,17.27
2018-01-13T05:23:09.718Z,20.75
2018-01-13T05:25:37.261Z,18.33
2018-01-13T05:28:04.789Z,22.23
2018-01-13T05:30:32.329Z,19.50
2018-01-13T05:32:59.852Z,17.70
2018-01-13T05:35:27.396Z,29.58
2018-01-13T05:37:54.925Z,25.08
2018-01-13T05:40:22.465Z,24.33
2018-01-13T05:42:50.065Z,21.27
2018-01-13T05:45:18.309Z,15.57
2018-01-13T05:47:45.853Z,18.43
2018-01-13T05:50:14.142Z,24.57
2018-01-13T05:52:42.445Z,23.60
2018-01-13T05:55:09.969Z,32.30
2018-01-13T05:57:37.514Z,38.97
2018-01-13T06:00:05.034Z,20.83
2018-01-13T06:02:32.553Z,21.83
2018-01-13T06:05:00.086Z,26.57
2018-01-13T06:07:27.598Z,29.70
2018-01-13T06:09:55.898Z,28.13
2018-01-13T06:12:23.414Z,19.87
2018-01-13T06:14:50.960Z,29.33
2018-01-13T06:17:18.481Z,41.07
2018-01-13T06:19:46.024Z,32.10
2018-01-13T06:22:13.546Z,47.17
2018-01-13T06:24:41.069Z,44.07
2018-01-13T06:27:08.607Z,43.80
2018-01-13T06:29:36.135Z,55.15
2018-01-13T06:32:03.674Z,38.57
2018-01-13T06:34:31.193Z,53.50
2018-01-13T06:36:58.738Z,47.13
2018-01-13T06:39:26.271Z,31.93
2018-01-13T06:41:53.806Z,39.10
2018-01-13T06:44:21.332Z,30.77
2018-01-13T06:46:48.878Z,31.87
2018-01-13T06:49:17.192Z,37.47
2018-01-13T06:51:44.733Z,32.50
2018-01-13T06:54:12.259Z,32.93
2018-01-13T06:56:39.802Z,31.03
2018-01-13T06:59:07.320Z,34.67
2018-01-13T07:01:34.841Z,40.80
2018-01-13T07:04:02.373Z,49.70
2018-01-13T07:06:29.921Z,45.63
2018-01-13T07:08:57.566Z,45.47
2018-01-13T07:11:25.141Z,34.40
2018-01-13T07:13:52.690Z,44.03
2018-01-13T07:16:20.219Z,46.50
2018-01-13T07:18:47.918Z,52.20
2018-01-13T07:21:15.488Z,47.88
2018-01-13T07:23:43.053Z,51.33
2018-01-13T07:26:10.613Z,46.70
2018-01-13T07:28:38.134Z,47.58
2018-01-13T07:31:06.451Z,42.10
2018-01-13T07:33:33.973Z,49.60
2018-01-13T07:36:02.277Z,41.20
2018-01-13T07:38:29.796Z,49.83
2018-01-13T07:40:57.333Z,39.40
2018-01-13T07:43:24.857Z,37.42
2018-01-13T07:45:52.441Z,39.53
2018-01-13T07:48:19.953Z,39.37
2018-01-13T07:50:48.245Z,43.47
2018-01-13T07:53:16.551Z,34.27
2018-01-13T07:55:44.072Z,46.20
2018-01-13T07:58:12.382Z,33.58
2018-01-13T08:00:39.909Z,40.83
2018-01-13T08:03:07.453Z,43.37
2018-01-13T08:05:34.974Z,34.97
2018-01-13T08:08:02.518Z,35.58
2018-01-13T08:10:30.038Z,34.03
2018-01-13T08:12:57.584Z,31.77
2018-01-13T08:15:25.867Z,24.90
2018-01-13T08:17:53.393Z,29.43
2018-01-13T08:20:20.934Z,31.90
2018-01-13T08:22:49.228Z,30.07
2018-01-13T08:25:16.768Z,35.43
2018-01-13T08:27:45.055Z,29.23
2018-01-13T08:30:13.363Z,28.80
2018-01-13T08:32:40.889Z,27.73
2018-01-13T08:35:09.198Z,32.77
2018-01-13T08:37:36.708Z,29.10
2018-01-13T08:40:04.246Z,30.87
2018-01-13T08:42:31.761Z,32.57
2018-01-13T08:44:59.300Z,28.50
2018-01-13T08:47:27.592Z,29.93
2018-01-13T08:49:55.909Z,31.43
2018-01-13T08:52:23.431Z,21.43
2018-01-13T08:54:51.722Z,22.73
2018-01-13T08:57:19.254Z,32.90
2018-01-13T08:59:46.774Z,28.20
2018-01-13T09:02:15.953Z,22.73
2018-01-13T09:04:43.476Z,22.63
2018-01-13T09:07:11.022Z,34.90
2018-01-13T09:09:38.549Z,34.30
2018-01-13T09:12:06.081Z,30.23
2018-01-13T09:14:34.370Z,24.87
2018-01-13T09:17:01.909Z,25.07
2018-01-13T09:19:30.198Z,29.60
2018-01-13T09:21:57.737Z,33.77
2018-01-13T09:24:25.349Z,27.73
2018-01-13T09:26:52.894Z,29.43
2018-01-13T09:29:20.418Z,24.40
2018-01-13T09:31:47.962Z,30.07
2018-01-13T09:34:15.525Z,25.67
2018-01-13T09:36:43.044Z,27.23
2018-01-13T09:39:10.578Z,25.17
2018-01-13T09:41:38.867Z,23.73
2018-01-13T09:44:06.452Z,28.70
2018-01-13T09:46:33.966Z,31.80
2018-01-13T09:49:01.509Z,26.33
2018-01-13T09:51:29.033Z,29.23
2018-01-13T09:53:56.573Z,26.87
2018-01-13T09:56:24.099Z,31.50
2018-01-13T09:58:52.606Z,24.53
2018-01-13T10:01:20.889Z,27.40
2018-01-13T10:03:48.412Z,25.00
2018-01-13T10:06:16.381Z,25.97
2018-01-13T10:08:43.897Z,28.00
2018-01-13T10:11:11.428Z,27.73
2018-01-13T10:13:39.717Z,24.00
2018-01-13T10:16:07.278Z,21.90
2018-01-13T10:18:35.561Z,25.47
2018-01-13T10:21:03.140Z,25.83
2018-01-13T10:23:30.657Z,23.90
2018-01-13T10:25:58.198Z,26.00
2018-01-13T10:28:25.718Z,27.10
2018-01-13T10:30:53.238Z,24.20
2018-01-13T10:33:20.777Z,26.60
2018-01-13T10:35:48.301Z,25.53
2018-01-13T10:38:16.676Z,22.20
2018-01-13T10:40:44.188Z,28.03
2018-01-13T10:43:11.730Z,22.93
2018-01-13T10:45:39.250Z,24.87
2018-01-13T10:48:07.556Z,25.93
2018-01-13T10:50:35.073Z,23.10
2018-01-13T10:53:03.394Z,28.10
2018-01-13T10:55:30.913Z,26.90
2018-01-13T10:57:59.197Z,25.13
2018-01-13T11:00:26.737Z,26.27
2018-01-13T11:02:54.255Z,28.50
2018-01-13T11:05:21.788Z,23.10
2018-01-13T11:07:50.132Z,26.73
2018-01-13T11:10:17.674Z,23.70
2018-01-13T11:12:45.201Z,26.13
2018-01-13T11:15:12.739Z,28.03
2018-01-13T11:17:41.021Z,26.30
2018-01-13T11:20:09.342Z,28.17
2018-01-13T11:22:36.861Z,28.27
2018-01-13T11:25:05.146Z,24.13
2018-01-13T11:27:32.685Z,30.33
2018-01-13T11:30:00.309Z,30.57
2018-01-13T11:32:28.665Z,30.17
2018-01-13T11:34:56.180Z,29.50
2018-01-13T11:37:23.712Z,25.20
2018-01-13T11:39:51.235Z,26.17
2018-01-13T11:42:18.770Z,28.07
2018-01-13T11:44:46.293Z,26.80
2018-01-13T11:47:23.772Z,29.17
2018-01-13T11:49:51.292Z,29.43
2018-01-13T11:52:18.834Z,30.30
2018-01-13T11:54:46.357Z,29.27
2018-01-13T11:57:13.869Z,29.43
2018-01-13T11:59:41.406Z,30.27
2018-01-13T12:02:08.921Z,25.40
2018-01-13T12:04:36.458Z,25.13
2018-01-13T12:07:04.746Z,27.77
2018-01-13T12:09:33.058Z,23.40
2018-01-13T12:12:00.725Z,25.63
2018-01-13T12:14:28.264Z,32.10
2018-01-13T12:16:55.785Z,31.43
2018-01-13T12:19:23.322Z,27.20
2018-01-13T12:21:50.842Z,23.03
2018-01-13T12:24:18.382Z,26.27
2018-01-13T12:26:46.672Z,23.40
2018-01-13T12:29:14.254Z,27.67
2018-01-13T12:31:41.774Z,23.80
2018-01-13T12:34:09.293Z,22.97
2018-01-13T12:36:36.830Z,25.87
2018-01-13T12:39:04.345Z,23.90
2018-01-13T12:41:32.652Z,23.87
2018-01-13T12:44:00.932Z,21.40
2018-01-13T12:46:29.245Z,24.57
2018-01-13T12:48:56.763Z,21.70
2018-01-13T12:51:25.081Z,22.63
2018-01-13T12:53:52.641Z,22.33
2018-01-13T12:56:20.182Z,20.27
2018-01-13T12:58:47.705Z,23.53
2018-01-13T13:01:15.237Z,32.83
2018-01-13T13:03:42.753Z,20.40
2018-01-13T13:06:11.062Z,21.03
2018-01-13T13:08:38.577Z,26.87
2018-01-13T13:11:06.896Z,21.43
2018-01-13T13:13:34.414Z,22.03
2018-01-13T13:16:02.711Z,22.43
2018-01-13T13:18:31.018Z,21.33
2018-01-13T13:20:58.532Z,18.40
2018-01-13T13:23:26.836Z,19.07
2018-01-13T13:25:54.361Z,21.93
2018-01-13T13:28:21.893Z,21.27
2018-01-13T13:30:49.418Z,25.80
2018-01-13T13:33:17.006Z,19.63
2018-01-13T13:35:44.531Z,19.80
2018-01-13T13:38:12.074Z,19.07
2018-01-13T13:40:39.593Z,25.40
2018-01-13T13:43:07.124Z,22.13
2018-01-13T13:45:34.645Z,21.17
2018-01-13T13:48:02.189Z,25.47
2018-01-13T13:50:29.714Z,18.73
2018-01-13T13:52:57.286Z,21.20
2018-01-13T13:55:24.809Z,23.57
2018-01-13T13:57:53.126Z,24.37
2018-01-13T14:00:20.652Z,26.60
2018-01-13T14:02:48.957Z,22.33
2018-01-13T14:05:16.485Z,25.70
2018-01-13T14:07:44.770Z,26.30
2018-01-13T14:10:13.074Z,27.47
2018-01-13T14:12:40.591Z,22.53
2018-01-13T14:15:08.128Z,21.77
2018-01-13T14:17:35.657Z,24.98
2018-01-13T14:20:03.199Z,25.27
2018-01-13T14:22:31.485Z,17.83
2018-01-13T14:24:59.989Z,27.27
2018-01-13T14:27:27.506Z,20.23
2018-01-13T14:29:55.823Z,21.50
2018-01-13T14:32:23.361Z,20.10
2018-01-13T14:34:50.900Z,26.53
2018-01-13T14:37:19.237Z,22.48
2018-01-13T14:39:46.761Z,19.08
2018-01-13T14:42:14.448Z,18.83
2018-01-13T14:44:41.973Z,24.83
2018-01-13T14:47:10.273Z,24.40
2018-01-13T14:49:37.802Z,25.45
2018-01-13T14:52:05.341Z,17.37
2018-01-13T14:54:32.867Z,23.47
2018-01-13T14:57:00.409Z,20.58
2018-01-13T14:59:27.996Z,19.83
2018-01-13T15:01:55.540Z,19.98
2018-01-13T15:04:23.057Z,20.10
2018-01-13T15:06:50.597Z,20.23
2018-01-13T15:09:18.132Z,24.98
2018-01-13T15:11:45.681Z,22.73
2018-01-13T15:14:13.209Z,20.48
2018-01-13T15:16:40.831Z,28.23
2018-01-13T15:19:08.393Z,23.77
2018-01-13T15:21:35.921Z,20.33
2018-01-13T15:24:03.466Z,21.90
2018-01-13T15:26:31.764Z,21.85
2018-01-13T15:28:59.304Z,22.65
2018-01-13T15:31:27.605Z,22.67
2018-01-13T15:33:55.152Z,22.58
2018-01-13T15:36:23.436Z,18.30
2018-01-13T15:38:50.976Z,25.88
2018-01-13T15:41:26.265Z,19.67
2018-01-13T15:43:53.814Z,24.20
2018-01-13T15:46:21.342Z,22.77
2018-01-13T15:48:49.664Z,19.62
2018-01-13T15:51:17.189Z,22.75
2018-01-13T15:53:45.492Z,24.00
2018-01-13T15:56:13.019Z,18.87
2018-01-13T15:58:41.304Z,26.70
2018-01-13T16:01:09.605Z,20.80
2018-01-13T16:03:37.129Z,21.30
2018-01-13T16:06:05.445Z,20.80
2018-01-13T16:08:33.012Z,24.65
2018-01-13T16:11:00.562Z,22.52
2018-01-13T16:13:28.136Z,21.48
2018-01-13T16:15:55.701Z,25.40
2018-01-13T16:18:23.270Z,20.12
2018-01-13T16:20:50.859Z,22.60
2018-01-13T16:23:18.386Z,30.48
2018-01-13T16:25:45.991Z,20.58
2018-01-13T16:28:13.516Z,22.42
2018-01-13T16:30:41.106Z,27.15
2018-01-13T16:33:08.631Z,22.98
2018-01-13T16:35:36.149Z,25.98
2018-01-13T16:38:04.503Z,19.55
2018-01-13T16:40:32.070Z,27.05
2018-01-13T16:42:59.613Z,27.27
2018-01-13T16:45:27.144Z,26.60
2018-01-13T16:47:54.698Z,22.23
2018-01-13T16:50:22.221Z,28.00
2018-01-13T16:52:49.790Z,23.15
2018-01-13T16:55:18.082Z,25.10
2018-01-13T16:57:46.397Z,26.85
2018-01-13T17:00:13.922Z,20.70
2018-01-13T17:02:41.509Z,26.10
2018-01-13T17:05:09.071Z,25.88
2018-01-13T17:07:36.623Z,21.20
2018-01-13T17:10:04.193Z,21.50
2018-01-13T17:12:31.767Z,25.55
2018-01-13T17:14:59.317Z,22.42
2018-01-13T17:17:26.841Z,22.55
2018-01-13T17:19:55.195Z,25.42
2018-01-13T17:22:22.721Z,21.10
2018-01-13T17:24:50.260Z,23.17
2018-01-13T17:27:17.796Z,21.33
2018-01-13T17:29:46.102Z,25.67
2018-01-13T17:32:13.626Z,23.27
2018-01-13T17:34:41.292Z,24.65
2018-01-13T17:37:09.625Z,22.30
2018-01-13T17:39:37.170Z,20.92
2018-01-13T17:42:04.755Z,23.05
2018-01-13T17:44:32.281Z,26.77
2018-01-13T17:46:59.874Z,28.67
2018-01-13T17:49:27.445Z,20.90
2018-01-13T17:51:55.036Z,27.30
2018-01-13T17:54:22.562Z,25.80
2018-01-13T17:56:50.152Z,21.17
2018-01-13T17:59:17.817Z,24.00
2018-01-13T18:01:45.357Z,22.10
2018-01-13T18:04:12.934Z,22.58
2018-01-13T18:06:40.525Z,23.67
2018-01-13T18:09:08.864Z,26.12
2018-01-13T18:11:36.576Z,21.20
2018-01-13T18:14:04.889Z,22.08
2018-01-13T18:16:32.450Z,20.25
2018-01-13T18:18:59.990Z,26.40
2018-01-13T18:21:27.554Z,21.33
2018-01-13T18:23:55.153Z,23.67
2018-01-13T18:26:22.669Z,21.73
2018-01-13T18:28:50.251Z,20.02
2018-01-13T18:31:17.772Z,19.05
2018-01-13T18:33:46.081Z,20.52
2018-01-13T18:36:13.648Z,24.52
2018-01-13T18:38:41.193Z,17.77
2018-01-13T18:41:08.720Z,20.15
2018-01-13T18:43:36.270Z,23.08
2018-01-13T18:46:03.790Z,24.20
2018-01-13T18:48:31.333Z,16.85
2018-01-13T18:50:58.895Z,22.80
2018-01-13T18:53:26.422Z,22.35
2018-01-13T18:55:53.961Z,21.83
2018-01-13T18:58:21.524Z,23.50
2018-01-13T19:00:49.165Z,21.75
2018-01-13T19:03:16.692Z,19.35
2018-01-13T19:05:45.005Z,18.85
2018-01-13T19:08:12.526Z,21.02
2018-01-13T19:10:40.870Z,24.50
2018-01-13T19:13:08.450Z,21.23
2018-01-13T19:15:36.043Z,21.30
2018-01-13T19:18:03.570Z,21.05
2018-01-13T19:20:31.145Z,26.17
2018-01-13T19:22:59.449Z,21.35
2018-01-13T19:25:27.028Z,25.08
2018-01-13T19:27:54.573Z,19.33
2018-01-13T19:30:22.154Z,25.60
2018-01-13T19:32:49.700Z,22.83
2018-01-13T19:35:17.276Z,23.60
2018-01-13T19:37:44.865Z,24.73
2018-01-13T19:40:12.435Z,22.73
2018-01-13T19:42:40.103Z,23.27
2018-01-13T19:45:07.688Z,24.55
2018-01-13T19:47:36.038Z,23.58
2018-01-13T19:50:03.602Z,20.98
2018-01-13T19:52:32.088Z,20.02
2018-01-13T19:54:59.654Z,26.35
2018-01-13T19:57:27.249Z,22.95
2018-01-13T19:59:54.829Z,25.15
2018-01-13T20:02:22.424Z,29.12
2018-01-13T20:04:49.970Z,23.12
2018-01-13T20:07:17.565Z,21.87
2018-01-13T20:09:45.927Z,23.05
2018-01-13T20:12:14.985Z,27.70
2018-01-13T20:14:42.600Z,22.55
2018-01-13T20:17:10.113Z,21.90
2018-01-13T20:19:37.709Z,25.00
2018-01-13T20:22:05.290Z,23.08
2018-01-13T20:24:33.658Z,26.35
2018-01-13T20:27:01.239Z,27.02
2018-01-13T20:29:29.605Z,21.83
2018-01-13T20:31:57.180Z,21.77
2018-01-13T20:34:25.488Z,26.02
2018-01-13T20:36:53.059Z,22.58
2018-01-13T20:39:20.612Z,25.45
2018-01-13T20:41:48.188Z,23.10
2018-01-13T20:44:15.760Z,19.80
2018-01-13T20:46:43.452Z,25.52
2018-01-13T20:49:11.793Z,22.75
2018-01-13T20:51:39.384Z,24.65
2018-01-13T20:54:07.060Z,29.42
2018-01-13T20:56:35.425Z,28.10
2018-01-13T20:59:03.091Z,24.10
2018-01-13T21:01:30.696Z,27.27
2018-01-13T21:03:58.272Z,25.02
2018-01-13T21:06:25.864Z,23.52
2018-01-13T21:08:53.386Z,25.65
2018-01-13T21:11:21.136Z,26.83
2018-01-13T21:13:48.708Z,23.50
2018-01-13T21:16:16.233Z,30.48
2018-01-13T21:18:44.595Z,26.37
2018-01-13T21:21:12.170Z,29.92
2018-01-13T21:23:39.752Z,26.67
2018-01-13T21:26:07.389Z,30.92
2018-01-13T21:28:34.962Z,30.10
2018-01-13T21:31:03.353Z,21.30
2018-01-13T21:33:31.709Z,24.90
2018-01-13T21:35:59.368Z,26.12
2018-01-13T21:38:26.913Z,22.33
2018-01-13T21:40:54.484Z,21.77
2018-01-13T21:43:22.025Z,24.85
2018-01-13T21:45:49.593Z,31.00
2018-01-13T21:48:17.380Z,26.45
2018-01-13T21:50:44.947Z,19.80
2018-01-13T21:53:12.526Z,29.37
2018-01-13T21:55:40.876Z,24.15
2018-01-13T21:58:08.449Z,21.60
2018-01-13T22:00:36.807Z,18.65
2018-01-13T22:03:04.381Z,22.58
2018-01-13T22:05:31.963Z,22.42
2018-01-13T22:08:00.301Z,18.20
2018-01-13T22:10:27.940Z,17.55
2018-01-13T22:12:55.510Z,27.27
2018-01-13T22:15:23.102Z,22.50
2018-01-13T22:17:50.677Z,23.08
2018-01-13T22:20:18.264Z,21.92
2018-01-13T22:22:45.897Z,17.73
2018-01-13T22:25:13.434Z,20.88
2018-01-13T22:27:40.995Z,19.60
2018-01-13T22:30:08.532Z,20.58
2018-01-13T22:32:36.049Z,17.70
2018-01-13T22:35:04.406Z,23.38
2018-01-13T22:37:31.923Z,22.25
2018-01-13T22:39:59.441Z,25.83
2018-01-13T22:42:27.790Z,21.33
2018-01-13T22:44:55.359Z,17.92
2018-01-13T22:47:22.940Z,20.92
2018-01-13T22:49:50.457Z,22.58
2018-01-13T22:52:18.045Z,22.17
2018-01-13T22:54:45.606Z,23.12
2018-01-13T22:57:13.138Z,22.37
2018-01-13T22:59:40.698Z,19.40
2018-01-13T23:02:08.288Z,22.62
2018-01-13T23:04:35.852Z,23.70
2018-01-13T23:07:03.443Z,16.40
2018-01-13T23:09:31.799Z,22.05
2018-01-13T23:11:59.337Z,26.58
2018-01-13T23:14:26.900Z,24.50
2018-01-13T23:16:54.605Z,24.92
2018-01-13T23:19:22.885Z,27.87
2018-01-13T23:21:51.207Z,26.02
2018-01-13T23:24:18.773Z,25.50
2018-01-13T23:26:46.328Z,27.27
2018-01-13T23:29:13.870Z,28.92
2018-01-13T23:31:41.440Z,23.60
2018-01-13T23:34:08.979Z,22.13
2018-01-13T23:36:36.502Z,26.87
2018-01-13T23:39:04.080Z,31.17
2018-01-13T23:41:32.366Z,29.87
2018-01-13T23:44:00.671Z,30.12
2018-01-13T23:46:28.195Z,30.27
2018-01-13T23:48:56.502Z,34.15
2018-01-13T23:51:24.059Z,27.55
2018-01-13T23:53:51.635Z,29.10
2018-01-13T23:56:19.150Z,30.92
2018-01-13T23:58:46.692Z,25.30
